sensor_id;sensor_type;location;lat;lon;timestamp;pressure;altitude;pressure_sealevel;temperature;humidity
57628;BME280;43451;49.060;10.616;2023-05-15T00:00:11;96311.09;;;10.15;100.00
57628;BME280;43451;49.060;10.616;2023-05-15T00:02:38;96314.22;;;10.10;100.00
57628;BME280;43451;49.060;10.616;2023-05-15T00:05:04;96303.41;;;10.03;100.00
57628;BME280;43451;49.060;10.616;2023-05-15T00:07:30;96298.41;;;9.98;100.00
57628;BME280;43451;49.060;10.616;2023-05-15T00:09:56;96301.13;;;9.94;100.00
57628;BME280;43451;49.060;10.616;2023-05-15T00:12:21;96299.59;;;9.93;100.00
57628;BME280;43451;49.060;10.616;2023-05-15T00:14:47;96305.41;;;9.92;100.00
57628;BME280;43451;49.060;10.616;2023-05-15T00:17:12;96307.28;;;10.02;100.00
57628;BME280;43451;49.060;10.616;2023-05-15T00:19:37;96310.44;;;9.97;100.00
57628;BME280;43451;49.060;10.616;2023-05-15T00:22:03;96305.72;;;10.05;100.00
57628;BME280;43451;49.060;10.616;2023-05-15T00:24:28;96301.13;;;9.98;100.00
57628;BME280;43451;49.060;10.616;2023-05-15T00:26:53;96295.72;;;9.94;100.00
57628;BME280;43451;49.060;10.616;2023-05-15T00:29:19;96287.97;;;9.93;100.00
57628;BME280;43451;49.060;10.616;2023-05-15T00:31:44;96291.09;;;9.88;100.00
57628;BME280;43451;49.060;10.616;2023-05-15T00:34:10;96285.72;;;9.81;100.00
57628;BME280;43451;49.060;10.616;2023-05-15T00:36:35;96278.00;;;9.75;100.00
57628;BME280;43451;49.060;10.616;2023-05-15T00:39:00;96274.56;;;9.68;100.00
57628;BME280;43451;49.060;10.616;2023-05-15T00:41:26;96274.94;;;9.66;100.00
57628;BME280;43451;49.060;10.616;2023-05-15T00:43:52;96273.19;;;10.01;100.00
57628;BME280;43451;49.060;10.616;2023-05-15T00:46:19;96279.25;;;10.19;100.00
57628;BME280;43451;49.060;10.616;2023-05-15T00:48:46;96282.59;;;9.86;100.00
57628;BME280;43451;49.060;10.616;2023-05-15T00:51:13;96272.53;;;9.79;100.00
57628;BME280;43451;49.060;10.616;2023-05-15T00:53:38;96269.44;;;9.81;100.00
57628;BME280;43451;49.060;10.616;2023-05-15T00:56:04;96272.97;;;9.77;100.00
57628;BME280;43451;49.060;10.616;2023-05-15T00:58:30;96268.72;;;9.69;100.00
57628;BME280;43451;49.060;10.616;2023-05-15T01:00:56;96276.84;;;9.73;100.00
57628;BME280;43451;49.060;10.616;2023-05-15T01:03:22;96274.16;;;9.69;100.00
57628;BME280;43451;49.060;10.616;2023-05-15T01:05:47;96274.16;;;9.69;100.00
57628;BME280;43451;49.060;10.616;2023-05-15T01:08:26;96268.72;;;9.69;100.00
57628;BME280;43451;49.060;10.616;2023-05-15T01:10:51;96260.56;;;9.73;100.00
57628;BME280;43451;49.060;10.616;2023-05-15T01:13:21;96265.63;;;9.71;100.00
57628;BME280;43451;49.060;10.616;2023-05-15T01:15:47;96263.75;;;9.64;100.00
57628;BME280;43451;49.060;10.616;2023-05-15T01:18:13;96257.53;;;9.60;100.00
57628;BME280;43451;49.060;10.616;2023-05-15T01:26:08;96253.34;;;9.52;100.00
57628;BME280;43451;49.060;10.616;2023-05-15T01:28:38;96268.06;;;9.47;100.00
57628;BME280;43451;49.060;10.616;2023-05-15T01:31:09;96260.72;;;9.51;100.00
57628;BME280;43451;49.060;10.616;2023-05-15T01:33:38;96261.81;;;9.58;100.00
57628;BME280;43451;49.060;10.616;2023-05-15T01:38:41;96249.78;;;9.66;100.00
57628;BME280;43451;49.060;10.616;2023-05-15T01:41:30;96250.91;;;9.68;100.00
57628;BME280;43451;49.060;10.616;2023-05-15T01:44:10;96251.66;;;9.72;100.00
57628;BME280;43451;49.060;10.616;2023-05-15T01:46:41;96252.06;;;9.71;100.00
57628;BME280;43451;49.060;10.616;2023-05-15T01:49:08;96245.47;;;9.72;100.00
57628;BME280;43451;49.060;10.616;2023-05-15T01:51:34;96240.03;;;9.72;100.00
57628;BME280;43451;49.060;10.616;2023-05-15T01:54:02;96246.25;;;9.72;100.00
57628;BME280;43451;49.060;10.616;2023-05-15T01:56:27;96247.44;;;9.68;100.00
57628;BME280;43451;49.060;10.616;2023-05-15T01:58:54;96238.53;;;9.67;100.00
57628;BME280;43451;49.060;10.616;2023-05-15T02:01:20;96238.53;;;9.67;100.00
57628;BME280;43451;49.060;10.616;2023-05-15T02:03:47;96238.94;;;9.62;100.00
57628;BME280;43451;49.060;10.616;2023-05-15T02:08:40;96240.41;;;9.77;100.00
57628;BME280;43451;49.060;10.616;2023-05-15T02:11:06;96241.28;;;9.60;100.00
57628;BME280;43451;49.060;10.616;2023-05-15T02:13:32;96243.97;;;9.64;100.00
57628;BME280;43451;49.060;10.616;2023-05-15T02:15:59;96237.00;;;9.63;100.00
57628;BME280;43451;49.060;10.616;2023-05-15T02:18:24;96241.66;;;9.62;100.00
57628;BME280;43451;49.060;10.616;2023-05-15T02:20:50;96242.41;;;9.63;100.00
57628;BME280;43451;49.060;10.616;2023-05-15T02:23:15;96240.50;;;9.60;100.00
57628;BME280;43451;49.060;10.616;2023-05-15T02:28:11;96240.91;;;9.54;100.00
57628;BME280;43451;49.060;10.616;2023-05-15T02:30:48;96234.78;;;9.43;100.00
57628;BME280;43451;49.060;10.616;2023-05-15T02:35:51;96237.13;;;9.38;100.00
57628;BME280;43451;49.060;10.616;2023-05-15T02:38:27;96234.44;;;9.38;100.00
57628;BME280;43451;49.060;10.616;2023-05-15T02:40:53;96241.03;;;9.37;100.00
57628;BME280;43451;49.060;10.616;2023-05-15T02:43:19;96241.03;;;9.37;100.00
57628;BME280;43451;49.060;10.616;2023-05-15T02:45:45;96243.38;;;9.31;100.00
57628;BME280;43451;49.060;10.616;2023-05-15T02:48:12;96230.56;;;9.32;100.00
57628;BME280;43451;49.060;10.616;2023-05-15T02:50:37;96236.00;;;9.32;100.00
57628;BME280;43451;49.060;10.616;2023-05-15T02:53:05;96244.53;;;9.34;100.00
57628;BME280;43451;49.060;10.616;2023-05-15T02:55:32;96235.63;;;9.33;100.00
57628;BME280;43451;49.060;10.616;2023-05-15T02:57:57;96235.63;;;9.33;100.00
57628;BME280;43451;49.060;10.616;2023-05-15T03:00:23;96231.72;;;9.38;100.00
57628;BME280;43451;49.060;10.616;2023-05-15T03:02:48;96235.22;;;9.35;100.00
57628;BME280;43451;49.060;10.616;2023-05-15T03:05:13;96239.84;;;9.38;100.00
57628;BME280;43451;49.060;10.616;2023-05-15T03:07:39;96234.44;;;9.38;100.00
57628;BME280;43451;49.060;10.616;2023-05-15T03:10:05;96235.63;;;9.33;100.00
57628;BME280;43451;49.060;10.616;2023-05-15T03:12:31;96237.94;;;9.35;100.00
57628;BME280;43451;49.060;10.616;2023-05-15T03:14:56;96238.72;;;9.28;100.00
57628;BME280;43451;49.060;10.616;2023-05-15T03:17:22;96237.97;;;9.27;100.00
57628;BME280;43451;49.060;10.616;2023-05-15T03:19:47;96236.81;;;9.21;100.00
57628;BME280;43451;49.060;10.616;2023-05-15T03:22:13;96250.00;;;9.19;100.00
57628;BME280;43451;49.060;10.616;2023-05-15T03:24:38;96251.56;;;9.20;100.00
57628;BME280;43451;49.060;10.616;2023-05-15T03:27:03;96250.00;;;9.19;100.00
57628;BME280;43451;49.060;10.616;2023-05-15T03:29:29;96248.06;;;9.16;100.00
57628;BME280;43451;49.060;10.616;2023-05-15T03:31:54;96252.00;;;9.08;100.00
57628;BME280;43451;49.060;10.616;2023-05-15T03:34:20;96252.78;;;9.05;100.00
57628;BME280;43451;49.060;10.616;2023-05-15T03:36:45;96244.22;;;9.06;100.00
57628;BME280;43451;49.060;10.616;2023-05-15T03:39:10;96250.06;;;9.01;100.00
57628;BME280;43451;49.060;10.616;2023-05-15T03:41:36;96250.09;;;8.98;100.00
57628;BME280;43451;49.060;10.616;2023-05-15T03:44:01;96250.47;;;8.93;100.00
57628;BME280;43451;49.060;10.616;2023-05-15T03:46:27;96243.88;;;8.94;100.00
57628;BME280;43451;49.060;10.616;2023-05-15T03:48:52;96250.47;;;8.93;100.00
57628;BME280;43451;49.060;10.616;2023-05-15T03:51:18;96245.09;;;8.89;100.00
57628;BME280;43451;49.060;10.616;2023-05-15T03:53:44;96245.88;;;8.86;100.00
57628;BME280;43451;49.060;10.616;2023-05-15T03:56:09;96247.41;;;8.83;100.00
57628;BME280;43451;49.060;10.616;2023-05-15T03:58:35;96249.72;;;8.81;100.00
57628;BME280;43451;49.060;10.616;2023-05-15T04:01:00;96243.56;;;8.77;100.00
57628;BME280;43451;49.060;10.616;2023-05-15T04:03:26;96247.03;;;8.74;100.00
57628;BME280;43451;49.060;10.616;2023-05-15T04:05:51;96243.19;;;8.79;100.00
57628;BME280;43451;49.060;10.616;2023-05-15T04:08:16;96244.72;;;8.80;100.00
57628;BME280;43451;49.060;10.616;2023-05-15T04:10:42;96240.81;;;8.84;100.00
57628;BME280;43451;49.060;10.616;2023-05-15T04:13:07;96241.19;;;8.94;100.00
57628;BME280;43451;49.060;10.616;2023-05-15T04:15:33;96245.75;;;9.15;100.00
57628;BME280;43451;49.060;10.616;2023-05-15T04:17:59;96245.72;;;9.22;100.00
57628;BME280;43451;49.060;10.616;2023-05-15T04:20:24;96246.44;;;9.37;100.00
57628;BME280;43451;49.060;10.616;2023-05-15T04:22:50;96242.53;;;9.41;100.00
57628;BME280;43451;49.060;10.616;2023-05-15T04:25:15;96242.13;;;9.46;100.00
57628;BME280;43451;49.060;10.616;2023-05-15T04:27:42;96237.06;;;9.52;100.00
57628;BME280;43451;49.060;10.616;2023-05-15T04:30:08;96246.34;;;9.58;100.00
57628;BME280;43451;49.060;10.616;2023-05-15T04:32:34;96233.91;;;9.64;100.00
57628;BME280;43451;49.060;10.616;2023-05-15T04:35:00;96241.19;;;9.74;100.00
57628;BME280;43451;49.060;10.616;2023-05-15T04:37:25;96243.47;;;9.83;100.00
57628;BME280;43451;49.060;10.616;2023-05-15T04:39:51;96256.97;;;9.94;100.00
57628;BME280;43451;49.060;10.616;2023-05-15T04:42:16;96247.53;;;10.09;100.00
57628;BME280;43451;49.060;10.616;2023-05-15T04:44:42;96247.91;;;10.11;100.00
57628;BME280;43451;49.060;10.616;2023-05-15T04:47:09;96229.63;;;10.19;100.00
57628;BME280;43451;49.060;10.616;2023-05-15T04:49:34;96243.56;;;10.25;100.00
57628;BME280;43451;49.060;10.616;2023-05-15T04:51:59;96244.63;;;10.38;100.00
57628;BME280;43451;49.060;10.616;2023-05-15T04:54:25;96238.75;;;10.43;100.00
57628;BME280;43451;49.060;10.616;2023-05-15T04:56:50;96246.75;;;10.61;100.00
57628;BME280;43451;49.060;10.616;2023-05-15T04:59:16;96242.41;;;10.67;100.00
57628;BME280;43451;49.060;10.616;2023-05-15T05:01:42;96242.06;;;10.61;100.00
57628;BME280;43451;49.060;10.616;2023-05-15T05:04:07;96244.06;;;10.57;100.00
57628;BME280;43451;49.060;10.616;2023-05-15T05:06:32;96242.78;;;10.65;100.00
57628;BME280;43451;49.060;10.616;2023-05-15T05:08:58;96246.91;;;10.81;100.00
57628;BME280;43451;49.060;10.616;2023-05-15T05:11:23;96252.78;;;10.79;100.00
57628;BME280;43451;49.060;10.616;2023-05-15T05:13:49;96251.91;;;10.86;100.00
57628;BME280;43451;49.060;10.616;2023-05-15T05:16:14;96252.72;;;10.83;100.00
57628;BME280;43451;49.060;10.616;2023-05-15T05:18:40;96249.97;;;10.86;100.00
57628;BME280;43451;49.060;10.616;2023-05-15T05:21:05;96245.69;;;10.89;100.00
57628;BME280;43451;49.060;10.616;2023-05-15T05:23:31;96243.25;;;10.98;100.00
57628;BME280;43451;49.060;10.616;2023-05-15T05:25:56;96249.41;;;11.02;100.00
57628;BME280;43451;49.060;10.616;2023-05-15T05:28:22;96243.00;;;11.20;100.00
57628;BME280;43451;49.060;10.616;2023-05-15T05:30:47;96243.00;;;11.20;100.00
57628;BME280;43451;49.060;10.616;2023-05-15T05:33:13;96249.34;;;11.40;100.00
57628;BME280;43451;49.060;10.616;2023-05-15T05:35:38;96253.31;;;11.35;100.00
57628;BME280;43451;49.060;10.616;2023-05-15T05:38:04;96247.06;;;11.38;100.00
57628;BME280;43451;49.060;10.616;2023-05-15T05:40:29;96246.19;;;11.45;100.00
57628;BME280;43451;49.060;10.616;2023-05-15T05:43:01;96247.56;;;11.57;100.00
57628;BME280;43451;49.060;10.616;2023-05-15T05:45:27;96243.31;;;11.56;100.00
57628;BME280;43451;49.060;10.616;2023-05-15T05:47:55;96240.50;;;11.63;100.00
57628;BME280;43451;49.060;10.616;2023-05-15T05:50:21;96239.97;;;12.02;100.00
57628;BME280;43451;49.060;10.616;2023-05-15T05:52:46;96248.31;;;12.39;100.00
57628;BME280;43451;49.060;10.616;2023-05-15T05:55:11;96249.53;;;12.81;100.00
57628;BME280;43451;49.060;10.616;2023-05-15T05:57:37;96255.38;;;13.23;100.00
57628;BME280;43451;49.060;10.616;2023-05-15T06:00:02;96251.66;;;13.53;100.00
57628;BME280;43451;49.060;10.616;2023-05-15T06:02:31;96247.59;;;13.41;100.00
57628;BME280;43451;49.060;10.616;2023-05-15T06:04:56;96251.09;;;13.22;100.00
57628;BME280;43451;49.060;10.616;2023-05-15T06:07:22;96248.09;;;13.16;100.00
57628;BME280;43451;49.060;10.616;2023-05-15T06:09:47;96248.53;;;13.35;100.00
57628;BME280;43451;49.060;10.616;2023-05-15T06:12:13;96252.78;;;13.16;100.00
57628;BME280;43451;49.060;10.616;2023-05-15T06:14:38;96245.25;;;13.04;100.00
57628;BME280;43451;49.060;10.616;2023-05-15T06:17:03;96231.38;;;12.94;100.00
57628;BME280;43451;49.060;10.616;2023-05-15T06:19:29;96241.09;;;12.95;100.00
57628;BME280;43451;49.060;10.616;2023-05-15T06:21:54;96243.13;;;12.91;100.00
57628;BME280;43451;49.060;10.616;2023-05-15T06:24:20;96237.03;;;12.84;100.00
57628;BME280;43451;49.060;10.616;2023-05-15T06:26:45;96235.19;;;12.77;100.00
57628;BME280;43451;49.060;10.616;2023-05-15T06:29:10;96234.13;;;12.71;100.00
57628;BME280;43451;49.060;10.616;2023-05-15T06:31:36;96235.56;;;12.55;100.00
57628;BME280;43451;49.060;10.616;2023-05-15T06:34:01;96240.69;;;12.53;100.00
57628;BME280;43451;49.060;10.616;2023-05-15T06:36:27;96242.69;;;12.49;100.00
57628;BME280;43451;49.060;10.616;2023-05-15T06:38:52;96243.25;;;12.41;100.00
57628;BME280;43451;49.060;10.616;2023-05-15T06:41:17;96232.94;;;12.28;100.00
57628;BME280;43451;49.060;10.616;2023-05-15T06:43:43;96256.19;;;12.33;100.00
57628;BME280;43451;49.060;10.616;2023-05-15T06:46:08;96250.75;;;12.33;100.00
57628;BME280;43451;49.060;10.616;2023-05-15T06:48:34;96250.50;;;12.24;100.00
57628;BME280;43451;49.060;10.616;2023-05-15T06:51:00;96246.63;;;12.25;100.00
57628;BME280;43451;49.060;10.616;2023-05-15T06:53:25;96246.66;;;12.45;100.00
57628;BME280;43451;49.060;10.616;2023-05-15T06:55:50;96243.81;;;12.52;100.00
57628;BME280;43451;49.060;10.616;2023-05-15T06:58:16;96252.16;;;12.65;100.00
57628;BME280;43451;49.060;10.616;2023-05-15T07:00:42;96240.34;;;12.95;100.00
57628;BME280;43451;49.060;10.616;2023-05-15T07:03:07;96251.38;;;13.08;100.00
57628;BME280;43451;49.060;10.616;2023-05-15T07:05:33;96249.75;;;12.90;100.00
57628;BME280;43451;49.060;10.616;2023-05-15T07:07:58;96247.53;;;12.85;100.00
57628;BME280;43451;49.060;10.616;2023-05-15T07:10:23;96247.53;;;12.85;100.00
57628;BME280;43451;49.060;10.616;2023-05-15T07:12:49;96251.00;;;12.86;100.00
57628;BME280;43451;49.060;10.616;2023-05-15T07:15:14;96244.28;;;12.90;100.00
57628;BME280;43451;49.060;10.616;2023-05-15T07:17:41;96231.72;;;12.96;100.00
57628;BME280;43451;49.060;10.616;2023-05-15T07:20:07;96238.94;;;13.07;100.00
57628;BME280;43451;49.060;10.616;2023-05-15T07:22:32;96245.16;;;13.47;100.00
57628;BME280;43451;49.060;10.616;2023-05-15T07:24:58;96246.00;;;13.64;100.00
57628;BME280;43451;49.060;10.616;2023-05-15T07:27:24;96245.31;;;13.76;100.00
57628;BME280;43451;49.060;10.616;2023-05-15T07:29:50;96243.63;;;13.82;100.00
57628;BME280;43451;49.060;10.616;2023-05-15T07:32:16;96249.44;;;14.01;100.00
57628;BME280;43451;49.060;10.616;2023-05-15T07:34:41;96252.53;;;14.19;100.00
57628;BME280;43451;49.060;10.616;2023-05-15T07:37:06;96248.59;;;14.36;100.00
57628;BME280;43451;49.060;10.616;2023-05-15T07:39:32;96245.88;;;14.20;100.00
57628;BME280;43451;49.060;10.616;2023-05-15T07:41:57;96239.22;;;14.21;100.00
57628;BME280;43451;49.060;10.616;2023-05-15T07:44:22;96245.72;;;14.27;100.00
57628;BME280;43451;49.060;10.616;2023-05-15T07:46:48;96237.66;;;14.36;100.00
57628;BME280;43451;49.060;10.616;2023-05-15T07:49:13;96240.91;;;14.48;100.00
57628;BME280;43451;49.060;10.616;2023-05-15T07:51:39;96246.22;;;14.38;100.00
57628;BME280;43451;49.060;10.616;2023-05-15T07:54:04;96245.44;;;14.38;100.00
57628;BME280;43451;49.060;10.616;2023-05-15T07:56:31;96240.56;;;14.46;100.00
57628;BME280;43451;49.060;10.616;2023-05-15T07:58:56;96239.53;;;14.39;100.00
57628;BME280;43451;49.060;10.616;2023-05-15T08:01:22;96241.88;;;14.41;100.00
57628;BME280;43451;49.060;10.616;2023-05-15T08:03:47;96245.03;;;14.23;100.00
57628;BME280;43451;49.060;10.616;2023-05-15T08:06:12;96239.56;;;14.23;100.00
57628;BME280;43451;49.060;10.616;2023-05-15T08:08:38;96243.75;;;14.11;100.00
57628;BME280;43451;49.060;10.616;2023-05-15T08:11:05;96244.94;;;14.27;100.00
57628;BME280;43451;49.060;10.616;2023-05-15T08:13:30;96244.59;;;14.08;100.00
57628;BME280;43451;49.060;10.616;2023-05-15T08:15:56;96241.03;;;14.11;100.00
57628;BME280;43451;49.060;10.616;2023-05-15T08:18:21;96248.78;;;14.13;100.00
57628;BME280;43451;49.060;10.616;2023-05-15T08:20:47;96245.47;;;14.22;100.00
57628;BME280;43451;49.060;10.616;2023-05-15T08:23:12;96242.47;;;14.32;100.00
57628;BME280;43451;49.060;10.616;2023-05-15T08:25:38;96241.13;;;14.24;100.00
57628;BME280;43451;49.060;10.616;2023-05-15T08:28:03;96240.91;;;14.48;100.00
57628;BME280;43451;49.060;10.616;2023-05-15T08:30:28;96244.97;;;14.59;100.00
57628;BME280;43451;49.060;10.616;2023-05-15T08:32:54;96247.44;;;14.54;100.00
57628;BME280;43451;49.060;10.616;2023-05-15T08:35:19;96236.50;;;14.54;100.00
57628;BME280;43451;49.060;10.616;2023-05-15T08:37:45;96232.16;;;14.56;100.00
57628;BME280;43451;49.060;10.616;2023-05-15T08:40:10;96234.44;;;14.58;97.45
57628;BME280;43451;49.060;10.616;2023-05-15T08:42:38;96227.84;;;14.72;93.46
57628;BME280;43451;49.060;10.616;2023-05-15T08:45:07;96234.81;;;14.89;100.00
57628;BME280;43451;49.060;10.616;2023-05-15T08:47:34;96225.56;;;15.12;100.00
57628;BME280;43451;49.060;10.616;2023-05-15T08:50:07;96234.28;;;14.94;100.00
57628;BME280;43451;49.060;10.616;2023-05-15T08:52:34;96226.50;;;14.93;100.00
57628;BME280;43451;49.060;10.616;2023-05-15T08:55:00;96229.81;;;15.00;100.00
57628;BME280;43451;49.060;10.616;2023-05-15T08:57:26;96223.78;;;15.35;100.00
57628;BME280;43451;49.060;10.616;2023-05-15T08:59:52;96218.28;;;15.35;100.00
57628;BME280;43451;49.060;10.616;2023-05-15T09:02:19;96223.91;;;15.44;100.00
57628;BME280;43451;49.060;10.616;2023-05-15T09:04:44;96222.00;;;15.28;100.00
57628;BME280;43451;49.060;10.616;2023-05-15T09:07:10;96223.25;;;15.40;98.31
57628;BME280;43451;49.060;10.616;2023-05-15T09:09:36;96217.13;;;15.36;100.00
57628;BME280;43451;49.060;10.616;2023-05-15T09:12:02;96217.75;;;15.40;98.48
57628;BME280;43451;49.060;10.616;2023-05-15T09:14:28;96217.78;;;15.65;100.00
57628;BME280;43451;49.060;10.616;2023-05-15T09:16:53;96213.53;;;15.51;95.48
57628;BME280;43451;49.060;10.616;2023-05-15T09:19:19;96214.56;;;15.70;93.38
57628;BME280;43451;49.060;10.616;2023-05-15T09:21:47;96209.06;;;15.70;91.60
57628;BME280;43451;49.060;10.616;2023-05-15T09:24:22;96203.78;;;15.89;99.39
57628;BME280;43451;49.060;10.616;2023-05-15T09:27:02;96208.63;;;15.85;81.69
57628;BME280;43451;49.060;10.616;2023-05-15T09:29:29;96204.56;;;16.02;89.87
57628;BME280;43451;49.060;10.616;2023-05-15T09:31:55;96198.41;;;16.11;84.53
57628;BME280;43451;49.060;10.616;2023-05-15T09:34:30;96196.66;;;16.17;81.37
57628;BME280;43451;49.060;10.616;2023-05-15T09:36:57;96201.50;;;16.00;72.04
57628;BME280;43451;49.060;10.616;2023-05-15T09:39:23;96205.56;;;15.83;74.41
57628;BME280;43451;49.060;10.616;2023-05-15T09:41:48;96195.28;;;15.87;80.52
57628;BME280;43451;49.060;10.616;2023-05-15T09:44:17;96195.69;;;15.98;79.15
57628;BME280;43451;49.060;10.616;2023-05-15T09:46:44;96192.28;;;15.94;77.84
57628;BME280;43451;49.060;10.616;2023-05-15T09:49:10;96207.00;;;15.87;81.83
57628;BME280;43451;49.060;10.616;2023-05-15T09:51:36;96198.88;;;15.71;82.02
57628;BME280;43451;49.060;10.616;2023-05-15T09:54:01;96196.66;;;15.66;84.62
57628;BME280;43451;49.060;10.616;2023-05-15T09:56:27;96195.03;;;15.68;84.45
57628;BME280;43451;49.060;10.616;2023-05-15T09:58:53;96197.78;;;15.81;82.17
57628;BME280;43451;49.060;10.616;2023-05-15T10:01:19;96195.38;;;16.09;80.34
57628;BME280;43451;49.060;10.616;2023-05-15T10:04:06;96190.53;;;16.00;72.18
57628;BME280;43451;49.060;10.616;2023-05-15T10:06:34;96182.91;;;16.30;75.19
57628;BME280;43451;49.060;10.616;2023-05-15T10:09:00;96182.16;;;16.64;75.13
57628;BME280;43451;49.060;10.616;2023-05-15T10:11:26;96172.16;;;16.70;78.26
57628;BME280;43451;49.060;10.616;2023-05-15T10:13:51;96172.91;;;16.83;76.29
57628;BME280;43451;49.060;10.616;2023-05-15T10:16:17;96169.38;;;16.83;74.37
57628;BME280;43451;49.060;10.616;2023-05-15T10:18:44;96174.75;;;16.86;73.12
57628;BME280;43451;49.060;10.616;2023-05-15T10:21:10;96175.34;;;16.68;69.71
57628;BME280;43451;49.060;10.616;2023-05-15T10:23:36;96172.41;;;16.63;72.12
57628;BME280;43451;49.060;10.616;2023-05-15T10:26:39;96168.94;;;16.50;69.01
57628;BME280;43451;49.060;10.616;2023-05-15T10:28:57;96166.97;;;16.50;71.00
57628;BME280;43451;49.060;10.616;2023-05-15T10:31:23;96165.34;;;16.75;71.63
57628;BME280;43451;49.060;10.616;2023-05-15T10:33:50;96166.50;;;17.08;86.23
57628;BME280;43451;49.060;10.616;2023-05-15T10:36:15;96156.97;;;16.91;68.55
57628;BME280;43451;49.060;10.616;2023-05-15T10:38:42;96178.72;;;16.73;68.12
57628;BME280;43451;49.060;10.616;2023-05-15T10:41:08;96163.34;;;16.53;73.94
57628;BME280;43451;49.060;10.616;2023-05-15T10:43:35;96172.00;;;16.52;70.08
57628;BME280;43451;49.060;10.616;2023-05-15T10:46:01;96157.97;;;16.50;71.81
57628;BME280;43451;49.060;10.616;2023-05-15T10:48:27;96163.19;;;16.35;67.92
57628;BME280;43451;49.060;10.616;2023-05-15T10:50:54;96169.09;;;16.33;71.30
57628;BME280;43451;49.060;10.616;2023-05-15T10:53:20;96166.44;;;16.42;71.93
57628;BME280;43451;49.060;10.616;2023-05-15T10:55:47;96173.44;;;16.56;67.00
57628;BME280;43451;49.060;10.616;2023-05-15T10:58:12;96169.50;;;16.44;63.83
57628;BME280;43451;49.060;10.616;2023-05-15T11:00:42;96162.16;;;16.41;63.86
57628;BME280;43451;49.060;10.616;2023-05-15T11:03:07;96158.81;;;16.24;65.83
57628;BME280;43451;49.060;10.616;2023-05-15T11:10:43;96148.75;;;16.21;71.12
57628;BME280;43451;49.060;10.616;2023-05-15T11:13:09;96156.97;;;16.21;70.31
57628;BME280;43451;49.060;10.616;2023-05-15T11:15:42;96144.19;;;16.40;70.96
57628;BME280;43451;49.060;10.616;2023-05-15T11:18:08;96145.28;;;16.43;67.75
57628;BME280;43451;49.060;10.616;2023-05-15T11:20:38;96137.06;;;16.43;70.27
57628;BME280;43451;49.060;10.616;2023-05-15T11:23:03;96138.84;;;16.37;72.99
57628;BME280;43451;49.060;10.616;2023-05-15T11:25:29;96130.91;;;16.39;67.72
57628;BME280;43451;49.060;10.616;2023-05-15T11:27:57;96128.31;;;16.57;63.84
57628;BME280;43451;49.060;10.616;2023-05-15T11:30:39;96123.41;;;16.74;59.87
57628;BME280;43451;49.060;10.616;2023-05-15T11:33:06;96128.03;;;16.99;59.69
57628;BME280;43451;49.060;10.616;2023-05-15T11:35:38;96128.28;;;17.14;60.09
57628;BME280;43451;49.060;10.616;2023-05-15T11:40:44;96134.75;;;16.98;62.76
57628;BME280;43451;49.060;10.616;2023-05-15T11:45:49;96140.88;;;16.45;66.61
57628;BME280;43451;49.060;10.616;2023-05-15T11:48:15;96136.91;;;16.24;67.08
57628;BME280;43451;49.060;10.616;2023-05-15T11:50:41;96135.34;;;16.23;62.57
57628;BME280;43451;49.060;10.616;2023-05-15T11:53:07;96124.00;;;16.47;64.36
57628;BME280;43451;49.060;10.616;2023-05-15T11:55:34;96122.25;;;16.40;74.79
57628;BME280;43451;49.060;10.616;2023-05-15T11:58:00;96121.50;;;16.40;77.00
57628;BME280;43451;49.060;10.616;2023-05-15T12:00:26;96120.72;;;16.61;72.12
57628;BME280;43451;49.060;10.616;2023-05-15T12:02:51;96118.72;;;16.75;69.10
57628;BME280;43451;49.060;10.616;2023-05-15T12:05:17;96113.81;;;16.91;70.77
57628;BME280;43451;49.060;10.616;2023-05-15T12:07:43;96113.19;;;17.18;66.28
57628;BME280;43451;49.060;10.616;2023-05-15T12:10:09;96113.59;;;17.39;59.46
57628;BME280;43451;49.060;10.616;2023-05-15T12:12:35;96117.34;;;17.54;58.30
57628;BME280;43451;49.060;10.616;2023-05-15T12:15:01;96119.56;;;17.47;59.22
57628;BME280;43451;49.060;10.616;2023-05-15T12:17:26;96122.94;;;17.42;56.36
57628;BME280;43451;49.060;10.616;2023-05-15T12:19:52;96116.16;;;17.33;58.17
57628;BME280;43451;49.060;10.616;2023-05-15T12:22:20;96110.19;;;17.26;59.68
57628;BME280;43451;49.060;10.616;2023-05-15T12:24:46;96106.03;;;17.21;54.53
57628;BME280;43451;49.060;10.616;2023-05-15T12:27:11;96099.94;;;17.17;60.27
57628;BME280;43451;49.060;10.616;2023-05-15T12:29:37;96102.44;;;17.33;58.29
57628;BME280;43451;49.060;10.616;2023-05-15T12:32:04;96095.00;;;17.43;58.58
57628;BME280;43451;49.060;10.616;2023-05-15T12:34:29;96098.75;;;17.68;56.82
57628;BME280;43451;49.060;10.616;2023-05-15T12:36:55;96099.34;;;17.62;57.60
57628;BME280;43451;49.060;10.616;2023-05-15T12:39:23;96088.22;;;17.75;55.32
57628;BME280;43451;49.060;10.616;2023-05-15T12:41:49;96104.03;;;17.93;55.80
57628;BME280;43451;49.060;10.616;2023-05-15T12:44:18;96092.97;;;17.75;56.75
57628;BME280;43451;49.060;10.616;2023-05-15T12:46:44;96100.56;;;17.61;59.21
57628;BME280;43451;49.060;10.616;2023-05-15T12:49:10;96106.63;;;17.56;62.14
57628;BME280;43451;49.060;10.616;2023-05-15T12:51:40;96094.25;;;17.43;62.38
57628;BME280;43451;49.060;10.616;2023-05-15T12:54:14;96098.94;;;17.33;63.48
57628;BME280;43451;49.060;10.616;2023-05-15T12:56:40;96093.84;;;17.62;63.73
57628;BME280;43451;49.060;10.616;2023-05-15T12:59:05;96095.78;;;17.93;64.29
57628;BME280;43451;49.060;10.616;2023-05-15T13:01:31;96094.28;;;18.20;62.26
57628;BME280;43451;49.060;10.616;2023-05-15T13:03:57;96083.59;;;18.59;61.41
57628;BME280;43451;49.060;10.616;2023-05-15T13:06:22;96087.13;;;18.50;56.96